sensor_id;sensor_type;location;lat;lon;timestamp;P1;durP1;ratioP1;P2;durP2;ratioP2
26512;SDS011;14186;53.822;10.152;2023-08-31T00:02:19;16.33;;;10.88;;
26512;SDS011;14186;53.822;10.152;2023-08-31T00:07:20;13.73;;;9.15;;
26512;SDS011;14186;53.822;10.152;2023-08-31T00:12:20;14.00;;;9.57;;
26512;SDS011;14186;53.822;10.152;2023-08-31T00:17:22;16.77;;;9.27;;
26512;SDS011;14186;53.822;10.152;2023-08-31T00:22:22;13.27;;;8.68;;
26512;SDS011;14186;53.822;10.152;2023-08-31T00:27:22;15.90;;;8.85;;
26512;SDS011;14186;53.822;10.152;2023-08-31T00:32:24;16.55;;;9.52;;
26512;SDS011;14186;53.822;10.152;2023-08-31T00:37:24;15.65;;;10.45;;
26512;SDS011;14186;53.822;10.152;2023-08-31T00:42:25;15.07;;;10.45;;
26512;SDS011;14186;53.822;10.152;2023-08-31T00:47:26;14.45;;;9.48;;
26512;SDS011;14186;53.822;10.152;2023-08-31T00:52:27;15.43;;;9.93;;
26512;SDS011;14186;53.822;10.152;2023-08-31T00:57:27;17.05;;;11.02;;
26512;SDS011;14186;53.822;10.152;2023-08-31T01:02:32;16.27;;;10.90;;
26512;SDS011;14186;53.822;10.152;2023-08-31T01:07:34;16.02;;;10.70;;
26512;SDS011;14186;53.822;10.152;2023-08-31T01:12:40;17.40;;;11.18;;
26512;SDS011;14186;53.822;10.152;2023-08-31T01:17:45;17.33;;;11.88;;
26512;SDS011;14186;53.822;10.152;2023-08-31T01:22:47;17.75;;;10.68;;
26512;SDS011;14186;53.822;10.152;2023-08-31T01:27:53;16.15;;;9.15;;
26512;SDS011;14186;53.822;10.152;2023-08-31T01:32:53;13.25;;;7.75;;
26512;SDS011;14186;53.822;10.152;2023-08-31T01:37:54;11.88;;;7.28;;
26512;SDS011;14186;53.822;10.152;2023-08-31T01:42:57;11.32;;;7.63;;
26512;SDS011;14186;53.822;10.152;2023-08-31T01:47:58;11.32;;;7.22;;
26512;SDS011;14186;53.822;10.152;2023-08-31T01:52:58;9.82;;;7.10;;
26512;SDS011;14186;53.822;10.152;2023-08-31T01:58:00;10.18;;;6.80;;
26512;SDS011;14186;53.822;10.152;2023-08-31T02:03:00;12.07;;;7.03;;
26512;SDS011;14186;53.822;10.152;2023-08-31T02:08:00;9.60;;;5.57;;
26512;SDS011;14186;53.822;10.152;2023-08-31T02:13:02;10.13;;;6.68;;
26512;SDS011;14186;53.822;10.152;2023-08-31T02:18:02;9.63;;;6.38;;
26512;SDS011;14186;53.822;10.152;2023-08-31T02:23:02;11.85;;;6.80;;
26512;SDS011;14186;53.822;10.152;2023-08-31T02:28:04;11.60;;;7.18;;
26512;SDS011;14186;53.822;10.152;2023-08-31T02:33:04;11.30;;;6.72;;
26512;SDS011;14186;53.822;10.152;2023-08-31T02:38:05;12.05;;;6.85;;
26512;SDS011;14186;53.822;10.152;2023-08-31T02:43:06;10.48;;;6.25;;
26512;SDS011;14186;53.822;10.152;2023-08-31T02:48:06;15.05;;;6.90;;
26512;SDS011;14186;53.822;10.152;2023-08-31T02:53:07;9.73;;;6.18;;
26512;SDS011;14186;53.822;10.152;2023-08-31T02:58:08;11.05;;;5.47;;
26512;SDS011;14186;53.822;10.152;2023-08-31T03:03:09;9.70;;;5.85;;
26512;SDS011;14186;53.822;10.152;2023-08-31T03:08:09;9.07;;;5.90;;
26512;SDS011;14186;53.822;10.152;2023-08-31T03:13:10;10.70;;;5.65;;
26512;SDS011;14186;53.822;10.152;2023-08-31T03:18:11;9.10;;;5.10;;
26512;SDS011;14186;53.822;10.152;2023-08-31T03:23:11;9.52;;;5.43;;
26512;SDS011;14186;53.822;10.152;2023-08-31T03:28:12;9.18;;;5.60;;
26512;SDS011;14186;53.822;10.152;2023-08-31T03:33:13;9.65;;;6.03;;
26512;SDS011;14186;53.822;10.152;2023-08-31T03:38:13;9.27;;;4.90;;
26512;SDS011;14186;53.822;10.152;2023-08-31T03:43:14;9.60;;;5.07;;
26512;SDS011;14186;53.822;10.152;2023-08-31T03:48:15;9.18;;;5.13;;
26512;SDS011;14186;53.822;10.152;2023-08-31T03:53:15;9.05;;;5.18;;
26512;SDS011;14186;53.822;10.152;2023-08-31T03:58:16;9.73;;;5.20;;
26512;SDS011;14186;53.822;10.152;2023-08-31T04:03:17;9.07;;;5.05;;
26512;SDS011;14186;53.822;10.152;2023-08-31T04:08:17;9.20;;;4.90;;
26512;SDS011;14186;53.822;10.152;2023-08-31T04:13:18;9.65;;;4.95;;
26512;SDS011;14186;53.822;10.152;2023-08-31T04:18:19;9.00;;;4.82;;
26512;SDS011;14186;53.822;10.152;2023-08-31T04:23:19;7.82;;;4.22;;
26512;SDS011;14186;53.822;10.152;2023-08-31T04:28:21;10.02;;;5.30;;
26512;SDS011;14186;53.822;10.152;2023-08-31T04:33:21;9.70;;;4.40;;
26512;SDS011;14186;53.822;10.152;2023-08-31T04:38:21;12.70;;;5.10;;
26512;SDS011;14186;53.822;10.152;2023-08-31T04:43:23;8.73;;;4.28;;
26512;SDS011;14186;53.822;10.152;2023-08-31T04:48:23;10.07;;;4.50;;
26512;SDS011;14186;53.822;10.152;2023-08-31T04:53:23;6.97;;;3.97;;
26512;SDS011;14186;53.822;10.152;2023-08-31T04:58:25;8.00;;;3.65;;
26512;SDS011;14186;53.822;10.152;2023-08-31T05:03:25;7.20;;;3.72;;
26512;SDS011;14186;53.822;10.152;2023-08-31T05:08:25;10.10;;;4.00;;
26512;SDS011;14186;53.822;10.152;2023-08-31T05:13:27;5.22;;;3.03;;
26512;SDS011;14186;53.822;10.152;2023-08-31T05:18:27;7.47;;;3.58;;
26512;SDS011;14186;53.822;10.152;2023-08-31T05:23:27;8.98;;;3.47;;
26512;SDS011;14186;53.822;10.152;2023-08-31T05:28:29;6.43;;;3.33;;
26512;SDS011;14186;53.822;10.152;2023-08-31T05:33:29;8.38;;;3.10;;
26512;SDS011;14186;53.822;10.152;2023-08-31T05:38:29;5.97;;;3.08;;
26512;SDS011;14186;53.822;10.152;2023-08-31T05:43:31;7.95;;;3.17;;
26512;SDS011;14186;53.822;10.152;2023-08-31T05:48:31;4.75;;;2.20;;
26512;SDS011;14186;53.822;10.152;2023-08-31T05:53:31;7.45;;;2.80;;
26512;SDS011;14186;53.822;10.152;2023-08-31T05:58:33;6.47;;;2.17;;
26512;SDS011;14186;53.822;10.152;2023-08-31T06:03:34;5.10;;;2.00;;
26512;SDS011;14186;53.822;10.152;2023-08-31T06:08:34;3.63;;;2.00;;
26512;SDS011;14186;53.822;10.152;2023-08-31T06:13:37;4.65;;;1.80;;
26512;SDS011;14186;53.822;10.152;2023-08-31T06:18:37;3.72;;;1.60;;
26512;SDS011;14186;53.822;10.152;2023-08-31T06:23:37;4.10;;;1.98;;
26512;SDS011;14186;53.822;10.152;2023-08-31T06:28:39;7.85;;;2.10;;
26512;SDS011;14186;53.822;10.152;2023-08-31T06:33:39;5.35;;;2.08;;
26512;SDS011;14186;53.822;10.152;2023-08-31T06:38:39;4.60;;;1.63;;
26512;SDS011;14186;53.822;10.152;2023-08-31T06:43:41;3.70;;;1.90;;
26512;SDS011;14186;53.822;10.152;2023-08-31T06:48:41;3.53;;;1.30;;
26512;SDS011;14186;53.822;10.152;2023-08-31T06:53:41;5.45;;;1.50;;
26512;SDS011;14186;53.822;10.152;2023-08-31T06:58:43;6.28;;;2.28;;
26512;SDS011;14186;53.822;10.152;2023-08-31T07:03:43;4.25;;;1.70;;
26512;SDS011;14186;53.822;10.152;2023-08-31T07:08:43;4.65;;;1.60;;
26512;SDS011;14186;53.822;10.152;2023-08-31T07:13:45;4.03;;;1.50;;
26512;SDS011;14186;53.822;10.152;2023-08-31T07:18:45;5.35;;;1.30;;
26512;SDS011;14186;53.822;10.152;2023-08-31T07:23:45;4.07;;;1.20;;
26512;SDS011;14186;53.822;10.152;2023-08-31T07:28:47;1.88;;;1.00;;
26512;SDS011;14186;53.822;10.152;2023-08-31T07:33:47;2.97;;;1.00;;
26512;SDS011;14186;53.822;10.152;2023-08-31T07:38:48;2.40;;;0.90;;
26512;SDS011;14186;53.822;10.152;2023-08-31T07:43:49;4.53;;;0.90;;
26512;SDS011;14186;53.822;10.152;2023-08-31T07:48:49;2.83;;;1.00;;
26512;SDS011;14186;53.822;10.152;2023-08-31T07:53:50;4.75;;;1.00;;
26512;SDS011;14186;53.822;10.152;2023-08-31T07:58:51;4.03;;;0.95;;
26512;SDS011;14186;53.822;10.152;2023-08-31T08:03:51;3.53;;;1.20;;
26512;SDS011;14186;53.822;10.152;2023-08-31T08:08:52;1.85;;;0.95;;
26512;SDS011;14186;53.822;10.152;2023-08-31T08:13:53;1.45;;;0.68;;
26512;SDS011;14186;53.822;10.152;2023-08-31T08:18:53;2.00;;;0.80;;
26512;SDS011;14186;53.822;10.152;2023-08-31T08:23:53;2.10;;;0.80;;
26512;SDS011;14186;53.822;10.152;2023-08-31T08:28:55;1.70;;;0.70;;
26512;SDS011;14186;53.822;10.152;2023-08-31T08:33:56;1.42;;;0.60;;
26512;SDS011;14186;53.822;10.152;2023-08-31T08:38:56;2.08;;;0.50;;
26512;SDS011;14186;53.822;10.152;2023-08-31T08:43:59;2.58;;;1.02;;
26512;SDS011;14186;53.822;10.152;2023-08-31T08:49:01;3.05;;;0.70;;
26512;SDS011;14186;53.822;10.152;2023-08-31T08:54:02;3.08;;;0.82;;
26512;SDS011;14186;53.822;10.152;2023-08-31T08:59:03;3.20;;;1.10;;
26512;SDS011;14186;53.822;10.152;2023-08-31T09:04:04;1.63;;;0.60;;
26512;SDS011;14186;53.822;10.152;2023-08-31T09:09:05;2.93;;;0.70;;
26512;SDS011;14186;53.822;10.152;2023-08-31T09:14:15;2.65;;;0.63;;
26512;SDS011;14186;53.822;10.152;2023-08-31T09:19:19;2.97;;;0.60;;
26512;SDS011;14186;53.822;10.152;2023-08-31T09:24:19;1.65;;;0.60;;
26512;SDS011;14186;53.822;10.152;2023-08-31T09:29:20;1.98;;;0.50;;
26512;SDS011;14186;53.822;10.152;2023-08-31T09:34:21;2.55;;;0.70;;
26512;SDS011;14186;53.822;10.152;2023-08-31T09:39:21;1.40;;;0.88;;
26512;SDS011;14186;53.822;10.152;2023-08-31T09:44:22;1.55;;;0.50;;
26512;SDS011;14186;53.822;10.152;2023-08-31T09:49:24;4.22;;;0.90;;
26512;SDS011;14186;53.822;10.152;2023-08-31T09:54:24;3.10;;;0.70;;
26512;SDS011;14186;53.822;10.152;2023-08-31T09:59:26;2.92;;;0.68;;
26512;SDS011;14186;53.822;10.152;2023-08-31T10:04:26;2.85;;;0.73;;
26512;SDS011;14186;53.822;10.152;2023-08-31T10:09:29;2.80;;;0.70;;
26512;SDS011;14186;53.822;10.152;2023-08-31T10:14:31;4.60;;;2.00;;
26512;SDS011;14186;53.822;10.152;2023-08-31T10:19:31;4.40;;;0.90;;
26512;SDS011;14186;53.822;10.152;2023-08-31T10:29:52;2.28;;;1.00;;
26512;SDS011;14186;53.822;10.152;2023-08-31T10:35:04;2.92;;;0.60;;
26512;SDS011;14186;53.822;10.152;2023-08-31T10:40:08;2.17;;;0.68;;
26512;SDS011;14186;53.822;10.152;2023-08-31T10:45:10;3.58;;;0.95;;
26512;SDS011;14186;53.822;10.152;2023-08-31T10:50:17;2.45;;;0.93;;
26512;SDS011;14186;53.822;10.152;2023-08-31T10:55:18;2.25;;;0.68;;
26512;SDS011;14186;53.822;10.152;2023-08-31T11:10:35;1.75;;;0.80;;
26512;SDS011;14186;53.822;10.152;2023-08-31T11:15:35;2.60;;;0.73;;
26512;SDS011;14186;53.822;10.152;2023-08-31T11:20:35;2.78;;;1.00;;
26512;SDS011;14186;53.822;10.152;2023-08-31T11:25:37;1.90;;;0.97;;
26512;SDS011;14186;53.822;10.152;2023-08-31T11:30:37;3.35;;;0.88;;
26512;SDS011;14186;53.822;10.152;2023-08-31T11:35:38;2.85;;;0.80;;
26512;SDS011;14186;53.822;10.152;2023-08-31T11:40:40;1.33;;;0.70;;
26512;SDS011;14186;53.822;10.152;2023-08-31T11:45:41;3.33;;;0.65;;
26512;SDS011;14186;53.822;10.152;2023-08-31T11:50:41;1.63;;;0.52;;
26512;SDS011;14186;53.822;10.152;2023-08-31T11:55:52;2.38;;;0.80;;
26512;SDS011;14186;53.822;10.152;2023-08-31T12:00:56;0.45;;;0.40;;
26512;SDS011;14186;53.822;10.152;2023-08-31T12:05:57;3.47;;;0.70;;
26512;SDS011;14186;53.822;10.152;2023-08-31T12:10:58;2.05;;;0.65;;
26512;SDS011;14186;53.822;10.152;2023-08-31T12:16:00;1.50;;;0.73;;
26512;SDS011;14186;53.822;10.152;2023-08-31T12:21:00;3.20;;;0.57;;
26512;SDS011;14186;53.822;10.152;2023-08-31T12:26:02;1.50;;;0.40;;
26512;SDS011;14186;53.822;10.152;2023-08-31T12:31:02;2.10;;;0.70;;
26512;SDS011;14186;53.822;10.152;2023-08-31T12:36:02;2.00;;;0.68;;
26512;SDS011;14186;53.822;10.152;2023-08-31T12:41:04;2.63;;;0.50;;
26512;SDS011;14186;53.822;10.152;2023-08-31T12:46:04;1.70;;;0.82;;
26512;SDS011;14186;53.822;10.152;2023-08-31T12:51:04;2.28;;;0.57;;
26512;SDS011;14186;53.822;10.152;2023-08-31T12:56:06;1.92;;;0.30;;
26512;SDS011;14186;53.822;10.152;2023-08-31T13:01:06;2.88;;;0.40;;
26512;SDS011;14186;53.822;10.152;2023-08-31T13:06:06;1.70;;;0.40;;
26512;SDS011;14186;53.822;10.152;2023-08-31T13:11:08;0.82;;;0.40;;
26512;SDS011;14186;53.822;10.152;2023-08-31T13:16:08;1.90;;;0.38;;
26512;SDS011;14186;53.822;10.152;2023-08-31T13:21:08;1.27;;;0.40;;
26512;SDS011;14186;53.822;10.152;2023-08-31T13:26:10;0.57;;;0.30;;
26512;SDS011;14186;53.822;10.152;2023-08-31T13:31:10;1.35;;;0.30;;
26512;SDS011;14186;53.822;10.152;2023-08-31T13:36:10;1.80;;;0.45;;
26512;SDS011;14186;53.822;10.152;2023-08-31T13:41:12;0.70;;;0.28;;
26512;SDS011;14186;53.822;10.152;2023-08-31T13:46:12;0.82;;;0.30;;
26512;SDS011;14186;53.822;10.152;2023-08-31T13:51:12;0.68;;;0.30;;
26512;SDS011;14186;53.822;10.152;2023-08-31T13:56:14;2.00;;;0.40;;
26512;SDS011;14186;53.822;10.152;2023-08-31T14:01:14;4.65;;;0.35;;
26512;SDS011;14186;53.822;10.152;2023-08-31T14:06:14;0.32;;;0.20;;
26512;SDS011;14186;53.822;10.152;2023-08-31T14:11:16;0.95;;;0.60;;
26512;SDS011;14186;53.822;10.152;2023-08-31T14:16:16;2.10;;;0.40;;
26512;SDS011;14186;53.822;10.152;2023-08-31T14:21:16;1.83;;;0.32;;
26512;SDS011;14186;53.822;10.152;2023-08-31T14:26:18;3.30;;;0.63;;
26512;SDS011;14186;53.822;10.152;2023-08-31T14:31:18;1.50;;;0.45;;
26512;SDS011;14186;53.822;10.152;2023-08-31T14:36:18;1.65;;;0.40;;
26512;SDS011;14186;53.822;10.152;2023-08-31T14:41:20;2.38;;;0.50;;
26512;SDS011;14186;53.822;10.152;2023-08-31T14:46:20;0.95;;;0.50;;
26512;SDS011;14186;53.822;10.152;2023-08-31T14:51:22;1.65;;;0.40;;
26512;SDS011;14186;53.822;10.152;2023-08-31T14:56:23;1.85;;;0.60;;
26512;SDS011;14186;53.822;10.152;2023-08-31T15:01:23;1.27;;;0.47;;
26512;SDS011;14186;53.822;10.152;2023-08-31T15:06:23;2.35;;;0.50;;
26512;SDS011;14186;53.822;10.152;2023-08-31T15:11:26;0.50;;;0.30;;
26512;SDS011;14186;53.822;10.152;2023-08-31T15:16:27;1.65;;;0.40;;
26512;SDS011;14186;53.822;10.152;2023-08-31T15:21:27;2.15;;;0.93;;
26512;SDS011;14186;53.822;10.152;2023-08-31T15:26:28;0.45;;;0.22;;
26512;SDS011;14186;53.822;10.152;2023-08-31T15:31:29;1.95;;;0.30;;
26512;SDS011;14186;53.822;10.152;2023-08-31T15:36:29;1.27;;;0.30;;
26512;SDS011;14186;53.822;10.152;2023-08-31T15:41:30;2.55;;;0.40;;
26512;SDS011;14186;53.822;10.152;2023-08-31T15:46:30;0.90;;;0.30;;
26512;SDS011;14186;53.822;10.152;2023-08-31T15:51:31;2.20;;;0.45;;
26512;SDS011;14186;53.822;10.152;2023-08-31T15:56:32;1.30;;;0.30;;
26512;SDS011;14186;53.822;10.152;2023-08-31T16:01:32;2.47;;;0.73;;
26512;SDS011;14186;53.822;10.152;2023-08-31T16:06:33;3.22;;;0.73;;
26512;SDS011;14186;53.822;10.152;2023-08-31T16:11:34;1.92;;;0.28;;
26512;SDS011;14186;53.822;10.152;2023-08-31T16:16:34;1.13;;;0.60;;
26512;SDS011;14186;53.822;10.152;2023-08-31T16:21:34;1.83;;;0.60;;
26512;SDS011;14186;53.822;10.152;2023-08-31T16:26:36;2.97;;;0.40;;
26512;SDS011;14186;53.822;10.152;2023-08-31T16:31:36;2.45;;;0.52;;
26512;SDS011;14186;53.822;10.152;2023-08-31T16:36:36;1.73;;;0.30;;
26512;SDS011;14186;53.822;10.152;2023-08-31T16:41:38;2.50;;;0.45;;
26512;SDS011;14186;53.822;10.152;2023-08-31T16:46:38;2.22;;;0.40;;
26512;SDS011;14186;53.822;10.152;2023-08-31T16:51:38;2.53;;;0.57;;
26512;SDS011;14186;53.822;10.152;2023-08-31T16:56:40;1.23;;;0.40;;
26512;SDS011;14186;53.822;10.152;2023-08-31T17:01:40;1.05;;;0.40;;
26512;SDS011;14186;53.822;10.152;2023-08-31T17:06:40;1.52;;;0.60;;
26512;SDS011;14186;53.822;10.152;2023-08-31T17:11:42;2.28;;;0.38;;
26512;SDS011;14186;53.822;10.152;2023-08-31T17:16:42;2.65;;;0.50;;
26512;SDS011;14186;53.822;10.152;2023-08-31T17:21:42;3.95;;;0.40;;
26512;SDS011;14186;53.822;10.152;2023-08-31T17:26:44;2.88;;;0.47;;
26512;SDS011;14186;53.822;10.152;2023-08-31T17:31:44;1.23;;;0.60;;
26512;SDS011;14186;53.822;10.152;2023-08-31T17:36:44;2.47;;;0.43;;
26512;SDS011;14186;53.822;10.152;2023-08-31T17:41:46;2.20;;;0.50;;
26512;SDS011;14186;53.822;10.152;2023-08-31T17:46:46;5.38;;;0.60;;
26512;SDS011;14186;53.822;10.152;2023-08-31T17:51:46;1.70;;;0.77;;
26512;SDS011;14186;53.822;10.152;2023-08-31T17:56:48;1.02;;;0.50;;
26512;SDS011;14186;53.822;10.152;2023-08-31T18:01:48;1.42;;;0.63;;
26512;SDS011;14186;53.822;10.152;2023-08-31T18:06:49;1.60;;;0.60;;
26512;SDS011;14186;53.822;10.152;2023-08-31T18:11:51;2.28;;;0.65;;
26512;SDS011;14186;53.822;10.152;2023-08-31T18:16:51;0.82;;;0.40;;
26512;SDS011;14186;53.822;10.152;2023-08-31T18:21:51;0.80;;;0.40;;
26512;SDS011;14186;53.822;10.152;2023-08-31T18:26:53;3.17;;;1.30;;
26512;SDS011;14186;53.822;10.152;2023-08-31T18:31:53;7.20;;;2.17;;
26512;SDS011;14186;53.822;10.152;2023-08-31T18:36:53;3.28;;;1.02;;
26512;SDS011;14186;53.822;10.152;2023-08-31T18:41:55;4.22;;;0.75;;
26512;SDS011;14186;53.822;10.152;2023-08-31T18:46:55;1.67;;;0.50;;
26512;SDS011;14186;53.822;10.152;2023-08-31T18:51:55;3.03;;;0.68;;
26512;SDS011;14186;53.822;10.152;2023-08-31T18:56:57;1.83;;;0.75;;
26512;SDS011;14186;53.822;10.152;2023-08-31T19:01:57;1.40;;;0.60;;
26512;SDS011;14186;53.822;10.152;2023-08-31T19:06:57;1.95;;;0.65;;
26512;SDS011;14186;53.822;10.152;2023-08-31T19:11:59;2.42;;;0.55;;
26512;SDS011;14186;53.822;10.152;2023-08-31T19:16:59;1.10;;;0.50;;
26512;SDS011;14186;53.822;10.152;2023-08-31T19:21:59;2.85;;;0.77;;
26512;SDS011;14186;53.822;10.152;2023-08-31T19:27:01;3.50;;;0.65;;
26512;SDS011;14186;53.822;10.152;2023-08-31T19:32:01;3.45;;;0.70;;
26512;SDS011;14186;53.822;10.152;2023-08-31T19:37:01;1.98;;;0.50;;
26512;SDS011;14186;53.822;10.152;2023-08-31T19:42:03;1.92;;;0.60;;
26512;SDS011;14186;53.822;10.152;2023-08-31T19:47:05;5.22;;;0.88;;
26512;SDS011;14186;53.822;10.152;2023-08-31T19:52:06;1.55;;;0.60;;
26512;SDS011;14186;53.822;10.152;2023-08-31T19:57:07;2.08;;;0.75;;
26512;SDS011;14186;53.822;10.152;2023-08-31T20:02:07;1.80;;;0.77;;
26512;SDS011;14186;53.822;10.152;2023-08-31T20:07:08;2.20;;;0.90;;
26512;SDS011;14186;53.822;10.152;2023-08-31T20:12:09;1.83;;;0.77;;
26512;SDS011;14186;53.822;10.152;2023-08-31T20:17:09;1.60;;;0.80;;
26512;SDS011;14186;53.822;10.152;2023-08-31T20:22:10;2.22;;;0.90;;
26512;SDS011;14186;53.822;10.152;2023-08-31T20:27:11;3.58;;;1.02;;
26512;SDS011;14186;53.822;10.152;2023-08-31T20:32:12;1.67;;;0.93;;
26512;SDS011;14186;53.822;10.152;2023-08-31T20:37:12;5.07;;;1.03;;
26512;SDS011;14186;53.822;10.152;2023-08-31T20:42:14;2.63;;;1.00;;
26512;SDS011;14186;53.822;10.152;2023-08-31T20:47:14;1.55;;;1.10;;
26512;SDS011;14186;53.822;10.152;2023-08-31T20:52:14;3.78;;;1.20;;
26512;SDS011;14186;53.822;10.152;2023-08-31T20:57:16;2.65;;;0.80;;
26512;SDS011;14186;53.822;10.152;2023-08-31T21:02:16;2.00;;;0.73;;
26512;SDS011;14186;53.822;10.152;2023-08-31T21:07:16;1.77;;;0.87;;
26512;SDS011;14186;53.822;10.152;2023-08-31T21:12:18;5.30;;;0.95;;
26512;SDS011;14186;53.822;10.152;2023-08-31T21:17:18;2.67;;;1.00;;
26512;SDS011;14186;53.822;10.152;2023-08-31T21:22:18;2.92;;;1.30;;
26512;SDS011;14186;53.822;10.152;2023-08-31T21:27:20;2.63;;;0.95;;
26512;SDS011;14186;53.822;10.152;2023-08-31T21:32:20;3.83;;;1.20;;
26512;SDS011;14186;53.822;10.152;2023-08-31T21:37:20;4.82;;;1.23;;
26512;SDS011;14186;53.822;10.152;2023-08-31T21:42:22;5.60;;;1.20;;
26512;SDS011;14186;53.822;10.152;2023-08-31T21:47:23;3.63;;;1.33;;
26512;SDS011;14186;53.822;10.152;2023-08-31T21:52:23;2.95;;;1.23;;
26512;SDS011;14186;53.822;10.152;2023-08-31T21:57:25;3.35;;;1.30;;
26512;SDS011;14186;53.822;10.152;2023-08-31T22:02:25;4.47;;;1.67;;
26512;SDS011;14186;53.822;10.152;2023-08-31T22:07:25;3.53;;;1.52;;
26512;SDS011;14186;53.822;10.152;2023-08-31T22:12:27;2.33;;;1.17;;
26512;SDS011;14186;53.822;10.152;2023-08-31T22:17:27;4.75;;;1.73;;
26512;SDS011;14186;53.822;10.152;2023-08-31T22:22:27;3.15;;;1.30;;
26512;SDS011;14186;53.822;10.152;2023-08-31T22:27:29;3.78;;;1.52;;
26512;SDS011;14186;53.822;10.152;2023-08-31T22:32:29;5.78;;;1.80;;
26512;SDS011;14186;53.822;10.152;2023-08-31T22:37:30;4.35;;;1.17;;
26512;SDS011;14186;53.822;10.152;2023-08-31T22:42:31;2.45;;;1.00;;
26512;SDS011;14186;53.822;10.152;2023-08-31T22:47:31;2.88;;;1.42;;
26512;SDS011;14186;53.822;10.152;2023-08-31T22:52:32;2.70;;;1.20;;
26512;SDS011;14186;53.822;10.152;2023-08-31T22:57:34;2.15;;;0.93;;
26512;SDS011;14186;53.822;10.152;2023-08-31T23:02:34;4.47;;;1.20;;
26512;SDS011;14186;53.822;10.152;2023-08-31T23:07:34;3.78;;;1.23;;
26512;SDS011;14186;53.822;10.152;2023-08-31T23:12:36;3.90;;;1.13;;
26512;SDS011;14186;53.822;10.152;2023-08-31T23:17:36;2.63;;;1.27;;
26512;SDS011;14186;53.822;10.152;2023-08-31T23:22:36;1.95;;;1.10;;
26512;SDS011;14186;53.822;10.152;2023-08-31T23:27:38;3.10;;;1.02;;
26512;SDS011;14186;53.822;10.152;2023-08-31T23:32:38;5.97;;;1.88;;
26512;SDS011;14186;53.822;10.152;2023-08-31T23:37:38;4.65;;;1.27;;
26512;SDS011;14186;53.822;10.152;2023-08-31T23:42:40;4.60;;;1.13;;
26512;SDS011;14186;53.822;10.152;2023-08-31T23:47:40;3.15;;;1.05;;
26512;SDS011;14186;53.822;10.152;2023-08-31T23:52:40;5.03;;;1.17;;
26512;SDS011;14186;53.822;10.152;2023-08-31T23:57:42;4.65;;;1.80;;
